createdAt,value
2024-03-16T00:00:07.948Z,1.75
2024-03-16T00:02:10.716Z,1.63
2024-03-16T00:04:13.516Z,1.90
2024-03-16T00:06:16.210Z,1.77
2024-03-16T00:08:19.238Z,1.40
2024-03-16T00:10:21.921Z,1.60
2024-03-16T00:12:23.693Z,1.65
2024-03-16T00:14:26.498Z,1.65
2024-03-16T00:16:31.578Z,1.98
2024-03-16T00:18:37.661Z,1.55
2024-03-16T00:20:41.724Z,1.50
2024-03-16T00:22:44.421Z,1.67
2024-03-16T00:24:47.124Z,1.30
2024-03-16T00:26:50.093Z,1.58
2024-03-16T00:28:53.037Z,1.17
2024-03-16T00:30:55.730Z,1.67
2024-03-16T00:32:58.550Z,1.30
2024-03-16T00:35:01.326Z,1.60
2024-03-16T00:37:05.650Z,1.30
2024-03-16T00:39:16.740Z,1.00
2024-03-16T00:41:18.822Z,1.33
2024-03-16T00:43:21.524Z,1.50
2024-03-16T00:45:24.188Z,1.23
2024-03-16T00:47:25.963Z,1.27
2024-03-16T00:49:28.789Z,1.17
2024-03-16T00:51:31.525Z,1.10
2024-03-16T00:53:34.462Z,1.13
2024-03-16T00:55:37.132Z,1.10
2024-03-16T00:57:39.196Z,0.95
2024-03-16T00:59:41.904Z,1.20
2024-03-16T01:01:44.669Z,1.08
2024-03-16T01:03:47.397Z,1.20
2024-03-16T01:05:52.805Z,0.75
2024-03-16T01:07:55.461Z,1.10
2024-03-16T01:09:58.144Z,0.93
2024-03-16T01:12:00.821Z,0.90
2024-03-16T01:14:06.186Z,1.08
2024-03-16T01:16:09.628Z,0.98
2024-03-16T01:18:11.457Z,0.80
2024-03-16T01:20:14.534Z,0.90
2024-03-16T01:22:17.375Z,0.80
2024-03-16T01:24:20.043Z,0.80
2024-03-16T01:26:22.794Z,0.85
2024-03-16T01:28:24.458Z,0.80
2024-03-16T01:30:27.233Z,0.77
2024-03-16T01:32:29.950Z,0.80
2024-03-16T01:34:32.708Z,0.85
2024-03-16T01:36:35.549Z,0.70
2024-03-16T01:38:38.323Z,0.60
2024-03-16T01:40:40.056Z,0.65
2024-03-16T01:42:42.932Z,0.65
2024-03-16T01:44:49.853Z,0.55
2024-03-16T01:46:52.640Z,0.70
2024-03-16T01:48:55.448Z,0.70
2024-03-16T01:50:58.120Z,0.73
2024-03-16T01:53:00.815Z,0.73
2024-03-16T01:55:05.178Z,0.60
2024-03-16T01:57:07.937Z,0.55
2024-03-16T01:59:10.585Z,0.75
2024-03-16T02:01:14.537Z,0.60
2024-03-16T02:03:17.412Z,0.63
2024-03-16T02:05:20.804Z,0.47
2024-03-16T02:07:23.518Z,0.45
2024-03-16T02:09:26.399Z,0.40
2024-03-16T02:11:29.249Z,0.50
2024-03-16T02:13:32.336Z,0.40
2024-03-16T02:15:34.100Z,0.50
2024-03-16T02:17:37.099Z,0.60
2024-03-16T02:19:38.832Z,0.50
2024-03-16T02:21:41.560Z,0.55
2024-03-16T02:23:43.249Z,0.40
2024-03-16T02:25:46.144Z,0.50
2024-03-16T02:27:48.483Z,0.52
2024-03-16T02:29:51.319Z,0.60
2024-03-16T02:31:56.052Z,0.30
2024-03-16T02:33:59.422Z,0.30
2024-03-16T02:36:02.234Z,0.45
2024-03-16T02:38:05.396Z,0.50
2024-03-16T02:40:08.740Z,0.30
2024-03-16T02:42:11.513Z,0.65
2024-03-16T02:44:13.358Z,0.40
2024-03-16T02:46:16.159Z,0.30
2024-03-16T02:48:18.881Z,0.30
2024-03-16T02:50:21.037Z,0.38
2024-03-16T02:52:24.309Z,0.40
2024-03-16T02:54:25.971Z,0.25
2024-03-16T02:56:28.704Z,0.45
2024-03-16T02:58:31.461Z,0.35
2024-03-16T03:00:34.425Z,0.38
2024-03-16T03:02:37.557Z,0.40
2024-03-16T03:04:40.433Z,0.50
2024-03-16T03:06:44.064Z,0.30
2024-03-16T03:08:49.036Z,0.45
2024-03-16T03:10:52.149Z,0.40
2024-03-16T03:12:55.452Z,0.35
2024-03-16T03:14:58.185Z,0.40
2024-03-16T03:17:01.706Z,0.25
2024-03-16T03:19:04.554Z,0.50
2024-03-16T03:21:06.381Z,0.40
2024-03-16T03:23:09.606Z,0.32
2024-03-16T03:25:12.762Z,0.32
2024-03-16T03:27:14.495Z,0.30
2024-03-16T03:29:17.130Z,0.28
2024-03-16T03:31:19.957Z,0.30
2024-03-16T03:33:22.723Z,0.30
2024-03-16T03:35:25.383Z,0.30
2024-03-16T03:37:28.090Z,0.40
2024-03-16T03:39:29.937Z,0.20
2024-03-16T03:41:32.942Z,0.30
2024-03-16T03:43:38.097Z,0.20
2024-03-16T03:45:51.280Z,0.30
2024-03-16T03:48:04.044Z,0.30
2024-03-16T03:50:07.125Z,0.30
2024-03-16T03:52:09.826Z,0.30
2024-03-16T03:54:11.694Z,0.30
2024-03-16T03:56:14.397Z,0.40
2024-03-16T03:58:17.270Z,0.30
2024-03-16T04:00:19.987Z,0.20
2024-03-16T04:02:22.668Z,0.20
2024-03-16T04:04:25.295Z,0.10
2024-03-16T04:06:28.011Z,0.20
2024-03-16T04:08:30.716Z,0.28
2024-03-16T04:10:34.003Z,0.30
2024-03-16T04:12:36.709Z,0.20
2024-03-16T04:14:39.403Z,0.47
2024-03-16T04:16:42.057Z,0.30
2024-03-16T04:18:44.761Z,0.20
2024-03-16T04:20:47.959Z,0.30
2024-03-16T04:22:49.648Z,0.30
2024-03-16T04:24:52.299Z,0.28
2024-03-16T04:26:54.992Z,0.30
2024-03-16T04:28:57.900Z,0.30
2024-03-16T04:31:00.555Z,0.28
2024-03-16T04:33:02.395Z,0.20
2024-03-16T04:35:05.675Z,0.13
2024-03-16T04:37:09.868Z,0.28
2024-03-16T04:39:12.651Z,0.13
2024-03-16T04:41:15.384Z,0.17
2024-03-16T04:43:17.555Z,0.10
2024-03-16T04:45:20.274Z,0.20
2024-03-16T04:47:22.935Z,0.20
2024-03-16T04:49:25.725Z,0.10
2024-03-16T04:51:28.425Z,0.20
2024-03-16T04:53:31.179Z,0.10
2024-03-16T04:55:34.707Z,0.20
2024-03-16T04:57:37.452Z,0.30
2024-03-16T04:59:40.320Z,0.20
2024-03-16T05:01:43.126Z,0.20
2024-03-16T05:03:45.981Z,0.20
2024-03-16T05:05:48.769Z,0.20
2024-03-16T05:07:51.513Z,0.15
2024-03-16T05:09:53.308Z,0.10
2024-03-16T05:11:55.998Z,0.15
2024-03-16T05:13:59.260Z,0.13
2024-03-16T05:16:07.294Z,0.20
2024-03-16T05:18:10.047Z,0.25
2024-03-16T05:20:12.592Z,0.25
2024-03-16T05:22:15.305Z,0.10
2024-03-16T05:24:18.082Z,0.10
2024-03-16T05:26:19.760Z,0.20
2024-03-16T05:28:27.253Z,0.17
2024-03-16T05:30:30.998Z,0.20
2024-03-16T05:32:33.729Z,0.20
2024-03-16T05:34:36.466Z,0.20
2024-03-16T05:36:39.122Z,0.20
2024-03-16T05:38:44.731Z,0.10
2024-03-16T05:40:48.456Z,0.10
2024-03-16T05:42:51.214Z,0.20
2024-03-16T05:44:53.897Z,0.25
2024-03-16T05:46:56.631Z,0.20
2024-03-16T05:48:59.628Z,0.20
2024-03-16T05:51:02.556Z,0.10
2024-03-16T05:53:05.308Z,0.10
2024-03-16T05:55:08.182Z,0.10
2024-03-16T05:57:09.970Z,0.28
2024-03-16T05:59:12.634Z,0.10
2024-03-16T06:01:15.395Z,0.10
2024-03-16T06:03:18.145Z,0.20
2024-03-16T06:05:20.829Z,0.20
2024-03-16T06:07:23.516Z,0.10
2024-03-16T06:09:26.162Z,0.20
2024-03-16T06:11:28.916Z,0.20
2024-03-16T06:13:31.100Z,0.22
2024-03-16T06:15:33.975Z,0.10
2024-03-16T06:17:36.837Z,0.32
2024-03-16T06:19:40.030Z,0.20
2024-03-16T06:21:42.761Z,0.10
2024-03-16T06:23:44.545Z,0.10
2024-03-16T06:25:50.143Z,0.20
2024-03-16T06:27:55.429Z,0.22
2024-03-16T06:29:58.700Z,0.20
2024-03-16T06:32:07.478Z,0.30
2024-03-16T06:34:10.356Z,0.10
2024-03-16T06:36:13.325Z,0.20
2024-03-16T06:38:16.583Z,0.20
2024-03-16T06:40:19.376Z,0.30
2024-03-16T06:44:29.838Z,0.30
2024-03-16T06:46:33.291Z,0.20
2024-03-16T06:48:36.148Z,0.20
2024-03-16T06:50:38.907Z,0.25
2024-03-16T06:52:41.624Z,0.10
2024-03-16T06:54:45.976Z,0.22
2024-03-16T06:56:48.795Z,0.22
2024-03-16T06:58:51.502Z,0.40
2024-03-16T07:00:54.317Z,0.20
2024-03-16T07:02:57.297Z,0.30
2024-03-16T07:05:01.631Z,0.20
2024-03-16T07:07:04.575Z,0.20
2024-03-16T07:09:09.749Z,0.20
2024-03-16T07:11:12.438Z,0.20
2024-03-16T07:13:15.173Z,0.20
2024-03-16T07:15:17.884Z,0.30
2024-03-16T07:17:20.873Z,0.30
2024-03-16T07:19:24.699Z,0.20
2024-03-16T07:21:29.385Z,0.35
2024-03-16T07:23:32.433Z,0.20
2024-03-16T07:25:35.265Z,0.40
2024-03-16T07:27:38.116Z,0.25
2024-03-16T07:29:42.050Z,0.22
2024-03-16T07:31:44.747Z,0.20
2024-03-16T07:33:48.092Z,0.30
2024-03-16T07:35:50.274Z,0.30
2024-03-16T07:37:52.956Z,0.28
2024-03-16T07:39:54.680Z,0.25
2024-03-16T07:41:57.436Z,0.30
2024-03-16T07:44:00.145Z,0.10
2024-03-16T07:46:02.847Z,0.30
2024-03-16T07:48:06.312Z,0.20
2024-03-16T07:50:10.372Z,0.22
2024-03-16T07:52:13.366Z,0.30
2024-03-16T07:54:16.380Z,0.30
2024-03-16T07:56:19.695Z,0.32
2024-03-16T07:58:22.539Z,0.30
2024-03-16T08:00:25.206Z,0.40
2024-03-16T08:02:27.822Z,0.30
2024-03-16T08:04:34.280Z,0.40
2024-03-16T08:06:35.995Z,0.50
2024-03-16T08:08:39.971Z,0.40
2024-03-16T08:10:43.666Z,0.40
2024-03-16T08:12:46.398Z,0.40
2024-03-16T08:14:49.269Z,0.40
2024-03-16T08:16:52.090Z,0.60
2024-03-16T08:18:54.751Z,0.32
2024-03-16T08:20:58.543Z,0.50
2024-03-16T08:23:00.246Z,0.38
2024-03-16T08:25:03.601Z,0.40
2024-03-16T08:27:06.375Z,0.30
2024-03-16T08:29:09.365Z,0.50
2024-03-16T08:31:12.128Z,0.40
2024-03-16T08:33:14.823Z,0.40
2024-03-16T08:35:18.108Z,0.40
2024-03-16T08:37:20.811Z,0.30
2024-03-16T08:39:25.131Z,0.28
2024-03-16T08:41:27.921Z,0.40
2024-03-16T08:43:30.672Z,0.40
2024-03-16T08:45:32.521Z,0.60
2024-03-16T08:47:35.440Z,0.30
2024-03-16T08:49:38.350Z,0.38
2024-03-16T08:51:41.053Z,0.35
2024-03-16T08:53:43.837Z,0.40
2024-03-16T08:55:46.527Z,0.40
2024-03-16T08:57:49.339Z,0.40
2024-03-16T08:59:52.342Z,0.50
2024-03-16T09:01:55.074Z,0.50
2024-03-16T09:03:57.928Z,0.30
2024-03-16T09:06:02.482Z,0.60
2024-03-16T09:08:05.352Z,0.50
2024-03-16T09:10:08.879Z,0.50
2024-03-16T09:12:11.653Z,0.57
2024-03-16T09:14:14.291Z,0.50
2024-03-16T09:16:16.813Z,0.50
2024-03-16T09:18:19.540Z,0.47
2024-03-16T09:20:21.277Z,0.60
2024-03-16T09:22:24.604Z,0.38
2024-03-16T09:24:26.330Z,0.40
2024-03-16T09:26:29.064Z,0.40
2024-03-16T09:28:31.720Z,0.40
2024-03-16T09:30:34.915Z,0.50
2024-03-16T09:32:38.520Z,0.40
2024-03-16T09:34:41.360Z,0.50
2024-03-16T09:36:44.017Z,0.40
2024-03-16T09:38:46.899Z,0.60
2024-03-16T09:40:53.579Z,0.30
